Terminal Aerodrome Forecast
Issued by NWS Charleston, SC

Home | Current Version | Previous Version | Text Only | Print | Product List | Glossary On
Versions: 1 2 3 4 5 6 7 8 9 10 11 12 13 14 15 16 17 18 19 20
000
FTUS42 KCHS 162327
TAFSAV
TAF
KSAV 162327Z 1700/1724 36012G18KT P6SM VCSH BKN040
      TEMPO 1700/1703 BKN020
     FM170300 02012G18KT P6SM FEW250
     FM171500 03014G20KT P6SM SCT250=

USA.gov is the U.S. government's official web portal to all federal, state and local government web resources and services.